sensor_id;sensor_type;location;lat;lon;timestamp;P1;durP1;ratioP1;P2;durP2;ratioP2
22046;SDS011;11187;49.412;20.956;2023-03-15T00:01:59;17.27;;;15.68;;
22046;SDS011;11187;49.412;20.956;2023-03-15T00:04:46;17.20;;;15.20;;
22046;SDS011;11187;49.412;20.956;2023-03-15T00:07:20;20.02;;;14.90;;
22046;SDS011;11187;49.412;20.956;2023-03-15T00:10:06;21.60;;;14.85;;
22046;SDS011;11187;49.412;20.956;2023-03-15T00:12:40;17.65;;;15.85;;
22046;SDS011;11187;49.412;20.956;2023-03-15T00:15:43;18.15;;;15.57;;
22046;SDS011;11187;49.412;20.956;2023-03-15T00:18:41;20.67;;;17.33;;
22046;SDS011;11187;49.412;20.956;2023-03-15T00:21:14;15.57;;;14.23;;
22046;SDS011;11187;49.412;20.956;2023-03-15T00:24:01;15.05;;;13.70;;
22046;SDS011;11187;49.412;20.956;2023-03-15T00:26:34;15.32;;;13.88;;
22046;SDS011;11187;49.412;20.956;2023-03-15T00:29:21;15.57;;;14.07;;
22046;SDS011;11187;49.412;20.956;2023-03-15T00:31:54;15.60;;;13.98;;
22046;SDS011;11187;49.412;20.956;2023-03-15T00:34:41;19.30;;;14.68;;
22046;SDS011;11187;49.412;20.956;2023-03-15T00:37:20;16.42;;;14.93;;
22046;SDS011;11187;49.412;20.956;2023-03-15T00:40:07;16.60;;;14.88;;
22046;SDS011;11187;49.412;20.956;2023-03-15T00:42:41;15.48;;;13.90;;
22046;SDS011;11187;49.412;20.956;2023-03-15T00:45:30;15.15;;;13.73;;
22046;SDS011;11187;49.412;20.956;2023-03-15T00:48:03;14.75;;;13.43;;
22046;SDS011;11187;49.412;20.956;2023-03-15T00:51:00;16.05;;;14.60;;
22046;SDS011;11187;49.412;20.956;2023-03-15T00:53:44;18.98;;;14.50;;
22046;SDS011;11187;49.412;20.956;2023-03-15T00:56:40;17.55;;;15.10;;
22046;SDS011;11187;49.412;20.956;2023-03-15T00:59:34;15.80;;;14.30;;
22046;SDS011;11187;49.412;20.956;2023-03-15T01:02:07;15.85;;;14.25;;
22046;SDS011;11187;49.412;20.956;2023-03-15T01:05:01;14.52;;;13.25;;
22046;SDS011;11187;49.412;20.956;2023-03-15T01:07:56;15.00;;;13.70;;
22046;SDS011;11187;49.412;20.956;2023-03-15T01:10:29;16.05;;;14.13;;
22046;SDS011;11187;49.412;20.956;2023-03-15T01:13:18;14.68;;;13.35;;
22046;SDS011;11187;49.412;20.956;2023-03-15T01:15:51;14.75;;;13.35;;
22046;SDS011;11187;49.412;20.956;2023-03-15T01:18:45;13.95;;;12.65;;
22046;SDS011;11187;49.412;20.956;2023-03-15T01:21:19;14.73;;;13.35;;
22046;SDS011;11187;49.412;20.956;2023-03-15T01:24:10;13.85;;;12.65;;
22046;SDS011;11187;49.412;20.956;2023-03-15T01:26:44;13.82;;;12.70;;
22046;SDS011;11187;49.412;20.956;2023-03-15T01:29:38;14.30;;;12.98;;
22046;SDS011;11187;49.412;20.956;2023-03-15T01:32:33;13.95;;;12.90;;
22046;SDS011;11187;49.412;20.956;2023-03-15T01:35:07;12.73;;;11.68;;
22046;SDS011;11187;49.412;20.956;2023-03-15T01:37:53;14.35;;;13.35;;
22046;SDS011;11187;49.412;20.956;2023-03-15T01:40:26;15.10;;;14.10;;
22046;SDS011;11187;49.412;20.956;2023-03-15T01:43:14;13.82;;;12.93;;
22046;SDS011;11187;49.412;20.956;2023-03-15T01:49:03;13.02;;;12.13;;
22046;SDS011;11187;49.412;20.956;2023-03-15T01:51:51;13.45;;;12.30;;
22046;SDS011;11187;49.412;20.956;2023-03-15T01:57:13;13.35;;;12.45;;
22046;SDS011;11187;49.412;20.956;2023-03-15T02:00:09;12.85;;;11.95;;
22046;SDS011;11187;49.412;20.956;2023-03-15T02:03:12;14.52;;;13.25;;
22046;SDS011;11187;49.412;20.956;2023-03-15T02:06:18;13.05;;;12.15;;
22046;SDS011;11187;49.412;20.956;2023-03-15T02:09:14;13.05;;;12.15;;
22046;SDS011;11187;49.412;20.956;2023-03-15T02:11:50;12.68;;;11.88;;
22046;SDS011;11187;49.412;20.956;2023-03-15T02:14:31;12.40;;;11.60;;
22046;SDS011;11187;49.412;20.956;2023-03-15T02:17:12;12.20;;;11.48;;
22046;SDS011;11187;49.412;20.956;2023-03-15T02:23:15;11.40;;;10.68;;
22046;SDS011;11187;49.412;20.956;2023-03-15T02:26:16;12.35;;;11.65;;
22046;SDS011;11187;49.412;20.956;2023-03-15T02:29:18;12.90;;;12.10;;
22046;SDS011;11187;49.412;20.956;2023-03-15T02:31:54;13.15;;;12.25;;
22046;SDS011;11187;49.412;20.956;2023-03-15T02:34:44;13.68;;;12.75;;
22046;SDS011;11187;49.412;20.956;2023-03-15T02:37:18;14.93;;;13.82;;
22046;SDS011;11187;49.412;20.956;2023-03-15T02:40:12;14.98;;;13.98;;
22046;SDS011;11187;49.412;20.956;2023-03-15T02:42:50;14.18;;;13.15;;
22046;SDS011;11187;49.412;20.956;2023-03-15T02:45:48;14.70;;;13.68;;
22046;SDS011;11187;49.412;20.956;2023-03-15T02:48:42;13.73;;;12.77;;
22046;SDS011;11187;49.412;20.956;2023-03-15T02:51:19;13.68;;;12.68;;
22046;SDS011;11187;49.412;20.956;2023-03-15T02:54:16;14.38;;;13.38;;
22046;SDS011;11187;49.412;20.956;2023-03-15T02:56:50;14.75;;;13.60;;
22046;SDS011;11187;49.412;20.956;2023-03-15T02:59:38;14.30;;;13.30;;
22046;SDS011;11187;49.412;20.956;2023-03-15T03:02:15;14.90;;;13.80;;
22046;SDS011;11187;49.412;20.956;2023-03-15T03:05:11;14.20;;;13.10;;
22046;SDS011;11187;49.412;20.956;2023-03-15T03:08:06;14.57;;;13.57;;
22046;SDS011;11187;49.412;20.956;2023-03-15T03:10:41;14.75;;;13.65;;
22046;SDS011;11187;49.412;20.956;2023-03-15T03:13:28;13.90;;;12.90;;
22046;SDS011;11187;49.412;20.956;2023-03-15T03:16:01;14.48;;;13.43;;
22046;SDS011;11187;49.412;20.956;2023-03-15T03:18:48;15.15;;;14.05;;
22046;SDS011;11187;49.412;20.956;2023-03-15T03:21:21;14.98;;;13.98;;
22046;SDS011;11187;49.412;20.956;2023-03-15T03:24:09;14.50;;;13.50;;
22046;SDS011;11187;49.412;20.956;2023-03-15T03:26:43;15.80;;;14.70;;
22046;SDS011;11187;49.412;20.956;2023-03-15T03:29:31;15.85;;;14.75;;
22046;SDS011;11187;49.412;20.956;2023-03-15T03:32:06;14.02;;;12.77;;
22046;SDS011;11187;49.412;20.956;2023-03-15T03:34:53;15.13;;;13.98;;
22046;SDS011;11187;49.412;20.956;2023-03-15T03:37:27;15.60;;;14.40;;
22046;SDS011;11187;49.412;20.956;2023-03-15T03:40:15;15.38;;;14.18;;
22046;SDS011;11187;49.412;20.956;2023-03-15T03:42:48;14.30;;;13.20;;
22046;SDS011;11187;49.412;20.956;2023-03-15T03:45:42;14.98;;;13.88;;
22046;SDS011;11187;49.412;20.956;2023-03-15T03:48:37;14.77;;;13.68;;
22046;SDS011;11187;49.412;20.956;2023-03-15T03:51:11;14.95;;;13.73;;
22046;SDS011;11187;49.412;20.956;2023-03-15T03:53:59;14.13;;;13.13;;
22046;SDS011;11187;49.412;20.956;2023-03-15T03:56:34;13.20;;;12.20;;
22046;SDS011;11187;49.412;20.956;2023-03-15T03:59:20;13.85;;;12.85;;
22046;SDS011;11187;49.412;20.956;2023-03-15T04:01:53;14.95;;;13.88;;
22046;SDS011;11187;49.412;20.956;2023-03-15T04:04:41;13.90;;;13.00;;
22046;SDS011;11187;49.412;20.956;2023-03-15T04:07:15;14.15;;;13.15;;
22046;SDS011;11187;49.412;20.956;2023-03-15T04:10:10;14.25;;;13.07;;
22046;SDS011;11187;49.412;20.956;2023-03-15T04:13:04;13.85;;;12.93;;
22046;SDS011;11187;49.412;20.956;2023-03-15T04:15:37;14.15;;;13.25;;
22046;SDS011;11187;49.412;20.956;2023-03-15T04:18:24;14.52;;;13.52;;
22046;SDS011;11187;49.412;20.956;2023-03-15T04:20:58;13.38;;;12.48;;
22046;SDS011;11187;49.412;20.956;2023-03-15T04:23:49;12.32;;;11.52;;
22046;SDS011;11187;49.412;20.956;2023-03-15T04:26:22;13.48;;;12.57;;
22046;SDS011;11187;49.412;20.956;2023-03-15T04:29:09;12.60;;;11.65;;
22046;SDS011;11187;49.412;20.956;2023-03-15T04:31:43;13.25;;;12.25;;
22046;SDS011;11187;49.412;20.956;2023-03-15T04:34:31;13.85;;;12.95;;
22046;SDS011;11187;49.412;20.956;2023-03-15T04:37:05;12.68;;;11.77;;
22046;SDS011;11187;49.412;20.956;2023-03-15T04:39:58;13.15;;;12.15;;
22046;SDS011;11187;49.412;20.956;2023-03-15T04:42:33;12.68;;;11.68;;
22046;SDS011;11187;49.412;20.956;2023-03-15T04:45:27;13.70;;;12.60;;
22046;SDS011;11187;49.412;20.956;2023-03-15T04:48:02;13.18;;;12.27;;
22046;SDS011;11187;49.412;20.956;2023-03-15T04:50:55;12.48;;;11.48;;
22046;SDS011;11187;49.412;20.956;2023-03-15T04:53:49;13.00;;;12.10;;
22046;SDS011;11187;49.412;20.956;2023-03-15T04:56:22;13.32;;;12.32;;
22046;SDS011;11187;49.412;20.956;2023-03-15T04:59:16;13.07;;;12.07;;
22046;SDS011;11187;49.412;20.956;2023-03-15T05:01:50;12.60;;;11.75;;
22046;SDS011;11187;49.412;20.956;2023-03-15T05:04:43;12.68;;;11.68;;
22046;SDS011;11187;49.412;20.956;2023-03-15T05:07:17;12.60;;;11.70;;
22046;SDS011;11187;49.412;20.956;2023-03-15T05:10:10;12.52;;;11.63;;
22046;SDS011;11187;49.412;20.956;2023-03-15T05:13:07;14.80;;;13.70;;
22046;SDS011;11187;49.412;20.956;2023-03-15T05:15:41;14.45;;;13.23;;
22046;SDS011;11187;49.412;20.956;2023-03-15T05:18:27;14.40;;;13.40;;
22046;SDS011;11187;49.412;20.956;2023-03-15T05:21:00;11.95;;;11.05;;
22046;SDS011;11187;49.412;20.956;2023-03-15T05:23:47;12.80;;;11.70;;
22046;SDS011;11187;49.412;20.956;2023-03-15T05:26:20;16.02;;;14.73;;
22046;SDS011;11187;49.412;20.956;2023-03-15T05:29:14;13.70;;;12.50;;
22046;SDS011;11187;49.412;20.956;2023-03-15T05:31:50;15.10;;;13.80;;
22046;SDS011;11187;49.412;20.956;2023-03-15T05:34:43;15.52;;;14.43;;
22046;SDS011;11187;49.412;20.956;2023-03-15T05:37:16;13.55;;;12.25;;
22046;SDS011;11187;49.412;20.956;2023-03-15T05:40:10;13.13;;;11.93;;
22046;SDS011;11187;49.412;20.956;2023-03-15T05:42:44;13.02;;;11.93;;
22046;SDS011;11187;49.412;20.956;2023-03-15T05:45:30;12.40;;;11.40;;
22046;SDS011;11187;49.412;20.956;2023-03-15T05:48:04;13.82;;;12.63;;
22046;SDS011;11187;49.412;20.956;2023-03-15T05:50:58;14.07;;;12.80;;
22046;SDS011;11187;49.412;20.956;2023-03-15T05:53:52;15.65;;;14.43;;
22046;SDS011;11187;49.412;20.956;2023-03-15T05:56:28;14.35;;;13.10;;
22046;SDS011;11187;49.412;20.956;2023-03-15T05:59:14;13.90;;;12.80;;
22046;SDS011;11187;49.412;20.956;2023-03-15T06:01:48;16.15;;;14.52;;
22046;SDS011;11187;49.412;20.956;2023-03-15T06:04:34;16.40;;;15.10;;
22046;SDS011;11187;49.412;20.956;2023-03-15T06:07:10;14.63;;;13.40;;
22046;SDS011;11187;49.412;20.956;2023-03-15T06:10:03;14.88;;;13.57;;
22046;SDS011;11187;49.412;20.956;2023-03-15T06:12:59;16.33;;;15.02;;
22046;SDS011;11187;49.412;20.956;2023-03-15T06:15:56;15.32;;;14.10;;
22046;SDS011;11187;49.412;20.956;2023-03-15T06:18:50;15.55;;;14.35;;
22046;SDS011;11187;49.412;20.956;2023-03-15T06:21:44;26.35;;;15.63;;
22046;SDS011;11187;49.412;20.956;2023-03-15T06:24:38;15.77;;;14.38;;
22046;SDS011;11187;49.412;20.956;2023-03-15T06:27:14;14.02;;;12.63;;
22046;SDS011;11187;49.412;20.956;2023-03-15T06:30:00;15.27;;;14.05;;
22046;SDS011;11187;49.412;20.956;2023-03-15T06:32:35;17.42;;;15.95;;
22046;SDS011;11187;49.412;20.956;2023-03-15T06:35:21;15.48;;;13.85;;
22046;SDS011;11187;49.412;20.956;2023-03-15T06:37:54;15.95;;;13.60;;
22046;SDS011;11187;49.412;20.956;2023-03-15T06:40:50;15.60;;;14.10;;
22046;SDS011;11187;49.412;20.956;2023-03-15T06:43:46;16.10;;;12.93;;
22046;SDS011;11187;49.412;20.956;2023-03-15T06:46:40;15.85;;;14.45;;
22046;SDS011;11187;49.412;20.956;2023-03-15T06:49:14;13.50;;;12.43;;
22046;SDS011;11187;49.412;20.956;2023-03-15T06:52:00;16.20;;;14.60;;
22046;SDS011;11187;49.412;20.956;2023-03-15T06:54:34;16.27;;;14.88;;
22046;SDS011;11187;49.412;20.956;2023-03-15T06:57:20;16.85;;;15.40;;
22046;SDS011;11187;49.412;20.956;2023-03-15T06:59:54;14.18;;;12.95;;
22046;SDS011;11187;49.412;20.956;2023-03-15T07:02:40;15.07;;;13.55;;
22046;SDS011;11187;49.412;20.956;2023-03-15T07:05:14;14.93;;;13.73;;
22046;SDS011;11187;49.412;20.956;2023-03-15T07:08:00;14.45;;;12.98;;
22046;SDS011;11187;49.412;20.956;2023-03-15T07:10:34;15.98;;;14.57;;
22046;SDS011;11187;49.412;20.956;2023-03-15T07:13:20;15.65;;;14.15;;
22046;SDS011;11187;49.412;20.956;2023-03-15T07:15:54;14.88;;;13.65;;
22046;SDS011;11187;49.412;20.956;2023-03-15T07:18:41;15.35;;;14.13;;
22046;SDS011;11187;49.412;20.956;2023-03-15T07:21:15;15.70;;;14.30;;
22046;SDS011;11187;49.412;20.956;2023-03-15T07:24:08;15.63;;;14.15;;
22046;SDS011;11187;49.412;20.956;2023-03-15T07:27:02;13.95;;;12.85;;
22046;SDS011;11187;49.412;20.956;2023-03-15T07:29:58;16.25;;;14.98;;
22046;SDS011;11187;49.412;20.956;2023-03-15T07:32:33;17.70;;;16.08;;
22046;SDS011;11187;49.412;20.956;2023-03-15T07:35:26;16.20;;;14.85;;
22046;SDS011;11187;49.412;20.956;2023-03-15T07:38:21;16.15;;;14.88;;
22046;SDS011;11187;49.412;20.956;2023-03-15T07:40:56;13.75;;;12.73;;
22046;SDS011;11187;49.412;20.956;2023-03-15T07:43:50;15.07;;;13.52;;
22046;SDS011;11187;49.412;20.956;2023-03-15T07:46:44;13.88;;;12.88;;
22046;SDS011;11187;49.412;20.956;2023-03-15T07:49:19;13.43;;;12.35;;
22046;SDS011;11187;49.412;20.956;2023-03-15T07:52:05;15.15;;;13.80;;
22046;SDS011;11187;49.412;20.956;2023-03-15T07:54:39;15.07;;;13.93;;
22046;SDS011;11187;49.412;20.956;2023-03-15T07:57:25;11.93;;;10.82;;
22046;SDS011;11187;49.412;20.956;2023-03-15T07:59:59;15.02;;;13.85;;
22046;SDS011;11187;49.412;20.956;2023-03-15T08:02:45;13.35;;;12.25;;
22046;SDS011;11187;49.412;20.956;2023-03-15T08:05:19;13.52;;;12.23;;
22046;SDS011;11187;49.412;20.956;2023-03-15T08:08:07;14.05;;;12.95;;
22046;SDS011;11187;49.412;20.956;2023-03-15T08:10:41;15.73;;;14.48;;
22046;SDS011;11187;49.412;20.956;2023-03-15T08:13:20;15.85;;;14.45;;
22046;SDS011;11187;49.412;20.956;2023-03-15T08:16:00;14.93;;;13.70;;
22046;SDS011;11187;49.412;20.956;2023-03-15T08:18:57;14.43;;;13.13;;
22046;SDS011;11187;49.412;20.956;2023-03-15T08:21:37;14.68;;;13.38;;
22046;SDS011;11187;49.412;20.956;2023-03-15T08:24:11;17.08;;;15.57;;
22046;SDS011;11187;49.412;20.956;2023-03-15T08:27:04;15.68;;;14.00;;
22046;SDS011;11187;49.412;20.956;2023-03-15T08:29:38;16.77;;;15.27;;
22046;SDS011;11187;49.412;20.956;2023-03-15T08:32:24;15.98;;;14.68;;
22046;SDS011;11187;49.412;20.956;2023-03-15T08:34:58;15.38;;;13.90;;
22046;SDS011;11187;49.412;20.956;2023-03-15T08:37:54;16.55;;;15.05;;
22046;SDS011;11187;49.412;20.956;2023-03-15T08:40:28;15.05;;;13.65;;
22046;SDS011;11187;49.412;20.956;2023-03-15T08:43:18;14.15;;;13.00;;
22046;SDS011;11187;49.412;20.956;2023-03-15T08:45:53;15.90;;;13.55;;
22046;SDS011;11187;49.412;20.956;2023-03-15T08:48:40;16.00;;;14.60;;
22046;SDS011;11187;49.412;20.956;2023-03-15T08:51:14;17.50;;;15.85;;
22046;SDS011;11187;49.412;20.956;2023-03-15T08:54:00;16.80;;;15.18;;
22046;SDS011;11187;49.412;20.956;2023-03-15T08:56:36;16.52;;;14.93;;
22046;SDS011;11187;49.412;20.956;2023-03-15T08:59:22;15.50;;;13.90;;
22046;SDS011;11187;49.412;20.956;2023-03-15T09:01:58;13.02;;;11.65;;
22046;SDS011;11187;49.412;20.956;2023-03-15T09:04:46;18.95;;;14.88;;
22046;SDS011;11187;49.412;20.956;2023-03-15T09:07:20;15.73;;;13.77;;
22046;SDS011;11187;49.412;20.956;2023-03-15T09:10:14;16.70;;;14.90;;
22046;SDS011;11187;49.412;20.956;2023-03-15T09:13:08;18.65;;;14.18;;
22046;SDS011;11187;49.412;20.956;2023-03-15T09:16:02;17.75;;;15.25;;
22046;SDS011;11187;49.412;20.956;2023-03-15T09:18:56;18.40;;;15.75;;
22046;SDS011;11187;49.412;20.956;2023-03-15T09:21:30;15.40;;;13.80;;
22046;SDS011;11187;49.412;20.956;2023-03-15T09:24:16;15.68;;;14.13;;
22046;SDS011;11187;49.412;20.956;2023-03-15T09:26:50;18.80;;;13.98;;
22046;SDS011;11187;49.412;20.956;2023-03-15T09:29:36;16.92;;;11.63;;
22046;SDS011;11187;49.412;20.956;2023-03-15T09:32:11;13.98;;;11.75;;
22046;SDS011;11187;49.412;20.956;2023-03-15T09:35:05;14.85;;;12.23;;
22046;SDS011;11187;49.412;20.956;2023-03-15T09:38:00;15.95;;;13.60;;
22046;SDS011;11187;49.412;20.956;2023-03-15T09:40:40;15.18;;;13.77;;
22046;SDS011;11187;49.412;20.956;2023-03-15T09:46:31;17.23;;;12.73;;
22046;SDS011;11187;49.412;20.956;2023-03-15T09:49:36;14.57;;;12.80;;
22046;SDS011;11187;49.412;20.956;2023-03-15T09:53:38;15.30;;;11.73;;
22046;SDS011;11187;49.412;20.956;2023-03-15T09:55:48;14.90;;;13.30;;
22046;SDS011;11187;49.412;20.956;2023-03-15T09:58:36;15.25;;;13.75;;
22046;SDS011;11187;49.412;20.956;2023-03-15T10:01:11;23.27;;;13.60;;
22046;SDS011;11187;49.412;20.956;2023-03-15T10:04:03;13.38;;;11.98;;
22046;SDS011;11187;49.412;20.956;2023-03-15T10:06:42;17.83;;;13.43;;
22046;SDS011;11187;49.412;20.956;2023-03-15T10:09:41;17.10;;;12.20;;
22046;SDS011;11187;49.412;20.956;2023-03-15T10:12:35;16.35;;;13.93;;
22046;SDS011;11187;49.412;20.956;2023-03-15T10:21:16;12.65;;;11.35;;
22046;SDS011;11187;49.412;20.956;2023-03-15T10:24:28;17.88;;;12.40;;
22046;SDS011;11187;49.412;20.956;2023-03-15T10:27:17;17.60;;;13.38;;
22046;SDS011;11187;49.412;20.956;2023-03-15T10:30:18;16.17;;;12.57;;
22046;SDS011;11187;49.412;20.956;2023-03-15T10:33:15;15.27;;;11.68;;
22046;SDS011;11187;49.412;20.956;2023-03-15T10:36:19;17.83;;;12.48;;
22046;SDS011;11187;49.412;20.956;2023-03-15T10:38:54;14.00;;;12.60;;
22046;SDS011;11187;49.412;20.956;2023-03-15T10:41:44;14.70;;;13.15;;
22046;SDS011;11187;49.412;20.956;2023-03-15T10:44:19;23.33;;;13.40;;
22046;SDS011;11187;49.412;20.956;2023-03-15T10:47:12;20.77;;;12.00;;
22046;SDS011;11187;49.412;20.956;2023-03-15T10:49:54;24.23;;;12.98;;
22046;SDS011;11187;49.412;20.956;2023-03-15T10:52:42;13.23;;;11.90;;
22046;SDS011;11187;49.412;20.956;2023-03-15T10:55:19;15.20;;;13.23;;
22046;SDS011;11187;49.412;20.956;2023-03-15T10:58:59;16.15;;;13.15;;
22046;SDS011;11187;49.412;20.956;2023-03-15T11:01:35;16.85;;;12.85;;
22046;SDS011;11187;49.412;20.956;2023-03-15T11:04:29;18.45;;;13.63;;
22046;SDS011;11187;49.412;20.956;2023-03-15T11:07:03;19.23;;;13.20;;
22046;SDS011;11187;49.412;20.956;2023-03-15T11:09:52;15.10;;;11.50;;
22046;SDS011;11187;49.412;20.956;2023-03-15T11:12:27;16.60;;;13.00;;
22046;SDS011;11187;49.412;20.956;2023-03-15T11:15:23;14.57;;;12.80;;
22046;SDS011;11187;49.412;20.956;2023-03-15T11:18:18;17.23;;;13.60;;
22046;SDS011;11187;49.412;20.956;2023-03-15T11:20:57;16.38;;;14.48;;
22046;SDS011;11187;49.412;20.956;2023-03-15T11:23:45;19.05;;;14.93;;
22046;SDS011;11187;49.412;20.956;2023-03-15T11:26:24;21.48;;;14.63;;
22046;SDS011;11187;49.412;20.956;2023-03-15T11:32:00;15.73;;;13.25;;
22046;SDS011;11187;49.412;20.956;2023-03-15T11:34:44;19.23;;;12.07;;
22046;SDS011;11187;49.412;20.956;2023-03-15T11:40:24;15.98;;;14.27;;
22046;SDS011;11187;49.412;20.956;2023-03-15T11:43:18;19.10;;;14.52;;
22046;SDS011;11187;49.412;20.956;2023-03-15T11:46:07;17.00;;;13.25;;
22046;SDS011;11187;49.412;20.956;2023-03-15T11:52:09;15.57;;;13.82;;
22046;SDS011;11187;49.412;20.956;2023-03-15T11:55:03;25.00;;;13.18;;
22046;SDS011;11187;49.412;20.956;2023-03-15T11:57:57;19.65;;;11.35;;
22046;SDS011;11187;49.412;20.956;2023-03-15T12:01:24;14.70;;;13.15;;
22046;SDS011;11187;49.412;20.956;2023-03-15T12:07:05;23.88;;;14.38;;
22046;SDS011;11187;49.412;20.956;2023-03-15T12:10:17;14.73;;;12.55;;
22046;SDS011;11187;49.412;20.956;2023-03-15T12:13:37;17.17;;;14.30;;
22046;SDS011;11187;49.412;20.956;2023-03-15T12:16:44;17.02;;;13.43;;
22046;SDS011;11187;49.412;20.956;2023-03-15T12:19:31;21.08;;;13.57;;
22046;SDS011;11187;49.412;20.956;2023-03-15T12:22:11;15.88;;;13.50;;
22046;SDS011;11187;49.412;20.956;2023-03-15T12:24:55;21.60;;;12.52;;
22046;SDS011;11187;49.412;20.956;2023-03-15T12:27:45;27.88;;;12.95;;
22046;SDS011;11187;49.412;20.956;2023-03-15T12:30:23;21.83;;;13.02;;
22046;SDS011;11187;49.412;20.956;2023-03-15T12:33:17;21.20;;;14.32;;
22046;SDS011;11187;49.412;20.956;2023-03-15T12:35:57;21.17;;;13.32;;
22046;SDS011;11187;49.412;20.956;2023-03-15T12:41:49;18.00;;;12.10;;
22046;SDS011;11187;49.412;20.956;2023-03-15T12:44:45;30.80;;;14.07;;
22046;SDS011;11187;49.412;20.956;2023-03-15T12:47:19;30.45;;;12.27;;
22046;SDS011;11187;49.412;20.956;2023-03-15T12:50:52;14.45;;;11.73;;
22046;SDS011;11187;49.412;20.956;2023-03-15T12:56:35;16.48;;;11.50;;
22046;SDS011;11187;49.412;20.956;2023-03-15T13:02:44;15.10;;;13.43;;
22046;SDS011;11187;49.412;20.956;2023-03-15T13:05:27;14.40;;;12.20;;
22046;SDS011;11187;49.412;20.956;2023-03-15T13:08:39;14.60;;;12.73;;
22046;SDS011;11187;49.412;20.956;2023-03-15T13:15:30;16.27;;;13.18;;
22046;SDS011;11187;49.412;20.956;2023-03-15T13:18:28;17.75;;;13.13;;
22046;SDS011;11187;49.412;20.956;2023-03-15T13:21:38;13.07;;;11.80;;
22046;SDS011;11187;49.412;20.956;2023-03-15T13:24:32;18.67;;;13.93;;
22046;SDS011;11187;49.412;20.956;2023-03-15T13:30:51;13.43;;;12.18;;
22046;SDS011;11187;49.412;20.956;2023-03-15T13:33:26;14.32;;;10.45;;
22046;SDS011;11187;49.412;20.956;2023-03-15T13:36:16;17.13;;;12.20;;
22046;SDS011;11187;49.412;20.956;2023-03-15T13:38:55;14.25;;;12.20;;
22046;SDS011;11187;49.412;20.956;2023-03-15T13:41:55;17.98;;;13.85;;
22046;SDS011;11187;49.412;20.956;2023-03-15T13:47:42;14.80;;;13.18;;
22046;SDS011;11187;49.412;20.956;2023-03-15T13:50:31;16.27;;;11.77;;
22046;SDS011;11187;49.412;20.956;2023-03-15T13:53:05;13.35;;;11.23;;
22046;SDS011;11187;49.412;20.956;2023-03-15T13:55:58;13.38;;;12.07;;
22046;SDS011;11187;49.412;20.956;2023-03-15T13:58:52;12.77;;;11.57;;
22046;SDS011;11187;49.412;20.956;2023-03-15T14:01:48;18.48;;;12.18;;
22046;SDS011;11187;49.412;20.956;2023-03-15T14:04:42;14.23;;;12.82;;
22046;SDS011;11187;49.412;20.956;2023-03-15T14:07:28;14.95;;;13.00;;
22046;SDS011;11187;49.412;20.956;2023-03-15T14:10:28;15.77;;;11.40;;
22046;SDS011;11187;49.412;20.956;2023-03-15T14:19:30;20.50;;;11.75;;
22046;SDS011;11187;49.412;20.956;2023-03-15T14:22:26;13.05;;;11.77;;
22046;SDS011;11187;49.412;20.956;2023-03-15T14:25:21;15.77;;;12.75;;
22046;SDS011;11187;49.412;20.956;2023-03-15T14:27:58;17.17;;;11.73;;
22046;SDS011;11187;49.412;20.956;2023-03-15T14:30:53;18.67;;;13.57;;
22046;SDS011;11187;49.412;20.956;2023-03-15T14:36:38;18.50;;;12.55;;
22046;SDS011;11187;49.412;20.956;2023-03-15T14:39:25;16.10;;;12.45;;
22046;SDS011;11187;49.412;20.956;2023-03-15T14:42:17;12.00;;;10.75;;
22046;SDS011;11187;49.412;20.956;2023-03-15T14:44:51;13.88;;;12.30;;
22046;SDS011;11187;49.412;20.956;2023-03-15T14:47:40;18.55;;;11.93;;
22046;SDS011;11187;49.412;20.956;2023-03-15T14:50:26;13.00;;;10.85;;
22046;SDS011;11187;49.412;20.956;2023-03-15T14:53:23;17.45;;;10.23;;
22046;SDS011;11187;49.412;20.956;2023-03-15T14:55:58;12.43;;;10.55;;
22046;SDS011;11187;49.412;20.956;2023-03-15T14:58:44;13.35;;;12.05;;
22046;SDS011;11187;49.412;20.956;2023-03-15T15:01:18;12.45;;;10.93;;
22046;SDS011;11187;49.412;20.956;2023-03-15T15:04:15;13.75;;;12.70;;
22046;SDS011;11187;49.412;20.956;2023-03-15T15:06:49;16.38;;;12.30;;
22046;SDS011;11187;49.412;20.956;2023-03-15T15:09:45;12.98;;;11.77;;
22046;SDS011;11187;49.412;20.956;2023-03-15T15:12:41;13.60;;;11.30;;
22046;SDS011;11187;49.412;20.956;2023-03-15T15:15:28;12.05;;;11.05;;
22046;SDS011;11187;49.412;20.956;2023-03-15T15:18:34;16.00;;;12.32;;
22046;SDS011;11187;49.412;20.956;2023-03-15T15:21:12;17.20;;;12.90;;
22046;SDS011;11187;49.412;20.956;2023-03-15T15:24:04;12.88;;;11.65;;
22046;SDS011;11187;49.412;20.956;2023-03-15T15:26:44;22.20;;;10.65;;
22046;SDS011;11187;49.412;20.956;2023-03-15T15:29:31;11.90;;;10.73;;
22046;SDS011;11187;49.412;20.956;2023-03-15T15:32:05;18.33;;;12.18;;
22046;SDS011;11187;49.412;20.956;2023-03-15T15:34:58;14.40;;;11.77;;
22046;SDS011;11187;49.412;20.956;2023-03-15T15:37:52;11.98;;;11.00;;
22046;SDS011;11187;49.412;20.956;2023-03-15T15:40:27;12.93;;;11.55;;
22046;SDS011;11187;49.412;20.956;2023-03-15T15:43:15;14.07;;;11.63;;
22046;SDS011;11187;49.412;20.956;2023-03-15T15:45:51;13.75;;;12.45;;
22046;SDS011;11187;49.412;20.956;2023-03-15T15:48:44;17.98;;;13.02;;
22046;SDS011;11187;49.412;20.956;2023-03-15T15:51:39;13.10;;;11.55;;
22046;SDS011;11187;49.412;20.956;2023-03-15T15:54:21;13.52;;;11.25;;
22046;SDS011;11187;49.412;20.956;2023-03-15T15:57:20;20.98;;;12.02;;
22046;SDS011;11187;49.412;20.956;2023-03-15T16:00:16;14.32;;;10.90;;
22046;SDS011;11187;49.412;20.956;2023-03-15T16:02:52;14.32;;;12.55;;
22046;SDS011;11187;49.412;20.956;2023-03-15T16:05:47;13.60;;;12.05;;
22046;SDS011;11187;49.412;20.956;2023-03-15T16:08:21;13.00;;;11.90;;
22046;SDS011;11187;49.412;20.956;2023-03-15T16:11:10;13.73;;;12.38;;
22046;SDS011;11187;49.412;20.956;2023-03-15T16:13:46;14.68;;;13.38;;
22046;SDS011;11187;49.412;20.956;2023-03-15T16:16:44;13.27;;;11.95;;
22046;SDS011;11187;49.412;20.956;2023-03-15T16:19:20;12.85;;;11.48;;
22046;SDS011;11187;49.412;20.956;2023-03-15T16:22:07;12.88;;;11.55;;
22046;SDS011;11187;49.412;20.956;2023-03-15T16:24:41;13.43;;;12.20;;
22046;SDS011;11187;49.412;20.956;2023-03-15T16:27:37;13.20;;;11.82;;
22046;SDS011;11187;49.412;20.956;2023-03-15T16:30:16;14.40;;;13.00;;
22046;SDS011;11187;49.412;20.956;2023-03-15T16:33:11;14.95;;;11.32;;
22046;SDS011;11187;49.412;20.956;2023-03-15T16:35:48;17.45;;;13.00;;
22046;SDS011;11187;49.412;20.956;2023-03-15T16:38:35;13.43;;;12.05;;
22046;SDS011;11187;49.412;20.956;2023-03-15T16:41:12;11.85;;;10.65;;
22046;SDS011;11187;49.412;20.956;2023-03-15T16:44:12;13.20;;;11.75;;
22046;SDS011;11187;49.412;20.956;2023-03-15T16:46:50;13.15;;;11.60;;
22046;SDS011;11187;49.412;20.956;2023-03-15T16:49:43;12.45;;;11.30;;
22046;SDS011;11187;49.412;20.956;2023-03-15T16:52:17;13.35;;;12.02;;
22046;SDS011;11187;49.412;20.956;2023-03-15T16:55:04;13.38;;;12.07;;
22046;SDS011;11187;49.412;20.956;2023-03-15T16:57:38;15.32;;;13.35;;